Krisjanis Valdemars — V7LI9 — position and weather

sailwx.info

Track history (hours):
 
Tides and Currents Weather Stations Pressure Air Temp Water Temp Dewpoint Dewpoint Depression Visibility Wind Speed Wind Dir Waves Ship Positions

Krisjanis Valdemars

Last reported at 2015-May-28 15:33 UTC. Time now 2015-May-28 16:12 UTC.
Position N 51°22' E 002°33'.

Length 183 m; draft 11.2 m.

Type: Tanker. MMSI: 538002757.

Date/timePositionNaut miles runAvg speedWind from/ knotsBaromVisibWave heightAir tempDewpointWater temp
2015-May-28 15:33N 51°22' E 002°33'1211.1
2015-May-28 14:28N 51°18' E 002°15'1112.0
2015-May-28 13:33N 51°23' E 001°59'1110.9
2015-May-28 12:33N 51°33' E 002°06'1212.1
2015-May-28 11:33N 51°42' E 002°20'24812.4
2015-May-27 15:33N 55°15' E 005°54'20912.3
2015-May-26 22:33N 57°48' E 010°14'1211.8
2015-May-26 21:34N 57°49' E 010°35'1010.1
2015-May-26 20:34N 57°45' E 010°53'1211.6
2015-May-26 19:33N 57°38' E 011°09'1212.4
2015-May-26 18:34N 57°29' E 011°25'1313.1
2015-May-26 17:34N 57°16' E 011°34'1312.9
2015-May-26 16:33N 57°04' E 011°41'1312.6
2015-May-26 15:33N 56°52' E 011°50'1211.6
2015-May-26 14:33N 56°41' E 011°49'11112.0
2015-May-26 05:21N 54°55' E 010°52'1910.4
2015-May-26 03:29N 54°36' E 011°01'1212.9
2015-May-26 02:33N 54°33' E 011°21'1312.9
2015-May-26 01:33N 54°28' E 011°41'1312.9
2015-May-26 00:34N 54°26' E 012°03'4811.4
2015-May-25 20:21N 54°53' E 013°12'3612.7
2015-May-25 17:32N 55°07' E 014°09'1513.0
2015-May-25 16:25N 55°19' E 014°25'1112.8
2015-May-25 15:33N 55°27' E 014°38'1313.1
2015-May-25 14:33N 55°33' E 014°59'1313.4
2015-May-25 13:33N 55°39' E 015°20'1413.2
2015-May-25 12:29N 55°47' E 015°41'8612.4
2015-May-25 05:31N 56°55' E 017°17'1212.6
2015-May-25 04:33N 57°06' E 017°25'1312.8
2015-May-25 03:34N 57°18' E 017°33'1312.8
2015-May-25 02:32N 57°30' E 017°42'7011.2
2015-May-24 20:16N 58°38' E 017°09'  
2015-May-21 00:29N 55°39' E 015°45'1111.8
2015-May-20 23:32N 55°37' E 015°26'1212.0
2015-May-20 22:33N 55°31' E 015°07'1212.0
2015-May-20 21:33N 55°26' E 014°48'1211.6
2015-May-20 20:33N 55°19' E 014°32'1211.7
2015-May-20 19:33N 55°10' E 014°19'1611.1
2015-May-20 18:05N 55°11' E 013°51'1811.4
2015-May-20 16:33N 55°12' E 013°20'1212.4
2015-May-20 15:33N 55°14' E 012°58'1312.6
2015-May-20 14:33N 55°18' E 012°38'1312.5
2015-May-20 13:33N 55°30' E 012°42'8 7.7
2015-May-20 12:33N 55°38' E 012°42'1111.5
2015-May-20 11:34N 55°50' E 012°42'1312.7
2015-May-20 10:34N 56°02' E 012°38'9 9.4
2015-May-20 09:34N 56°09' E 012°26'1312.5
2015-May-20 08:33N 56°16' E 012°08'1313.1
2015-May-20 07:32N 56°28' E 011°59'1313.5
2015-May-20 06:33N 56°41' E 011°54'1413.9
2015-May-20 05:33N 56°54' E 011°46'1413.8
2015-May-20 04:33N 57°08' E 011°37'1413.9
2015-May-20 03:33N 57°21' E 011°29'1212.4
2015-May-20 02:33N 57°30' E 011°15'1413.9
2015-May-20 01:33N 57°37' E 010°52'10 2.9
2015-May-19 22:12N 57°42' E 010°36'0 0.0
2015-May-19 21:24N 57°42' E 010°36'0 0.0
2015-May-19 20:30N 57°42' E 010°36'0 0.0
2015-May-19 19:24N 57°42' E 010°36'8 9.1
2015-May-19 18:33N 57°35' E 010°40'  
Track history (hours):
 
Tides and Currents Weather Stations Pressure Air Temp Water Temp Dewpoint Dewpoint Depression Visibility Wind Speed Wind Dir Waves Ship Positions

Krisjanis Valdemars

Last reported at 2015-May-28 15:33 UTC. Time now 2015-May-28 16:12 UTC.
Position N 51°22' E 002°33'.

Length 183 m; draft 11.2 m.

Type: Tanker. MMSI: 538002757.

Date/timePositionNaut miles runAvg speedWind from/ knotsBaromVisibWave heightAir tempDewpointWater temp
2015-May-28 15:33N 51°22' E 002°33'1211.1
2015-May-28 14:28N 51°18' E 002°15'1112.0
2015-May-28 13:33N 51°23' E 001°59'1110.9
2015-May-28 12:33N 51°33' E 002°06'1212.1
2015-May-28 11:33N 51°42' E 002°20'24812.4
2015-May-27 15:33N 55°15' E 005°54'20912.3
2015-May-26 22:33N 57°48' E 010°14'1211.8
2015-May-26 21:34N 57°49' E 010°35'1010.1
2015-May-26 20:34N 57°45' E 010°53'1211.6
2015-May-26 19:33N 57°38' E 011°09'1212.4
2015-May-26 18:34N 57°29' E 011°25'1313.1
2015-May-26 17:34N 57°16' E 011°34'1312.9
2015-May-26 16:33N 57°04' E 011°41'1312.6
2015-May-26 15:33N 56°52' E 011°50'1211.6
2015-May-26 14:33N 56°41' E 011°49'11112.0
2015-May-26 05:21N 54°55' E 010°52'1910.4
2015-May-26 03:29N 54°36' E 011°01'1212.9
2015-May-26 02:33N 54°33' E 011°21'1312.9
2015-May-26 01:33N 54°28' E 011°41'1312.9
2015-May-26 00:34N 54°26' E 012°03'4811.4
2015-May-25 20:21N 54°53' E 013°12'3612.7
2015-May-25 17:32N 55°07' E 014°09'1513.0
2015-May-25 16:25N 55°19' E 014°25'1112.8
2015-May-25 15:33N 55°27' E 014°38'1313.1
2015-May-25 14:33N 55°33' E 014°59'1313.4
2015-May-25 13:33N 55°39' E 015°20'1413.2
2015-May-25 12:29N 55°47' E 015°41'8612.4
2015-May-25 05:31N 56°55' E 017°17'1212.6
2015-May-25 04:33N 57°06' E 017°25'1312.8
2015-May-25 03:34N 57°18' E 017°33'1312.8
2015-May-25 02:32N 57°30' E 017°42'7011.2
2015-May-24 20:16N 58°38' E 017°09'  
2015-May-21 00:29N 55°39' E 015°45'1111.8
2015-May-20 23:32N 55°37' E 015°26'1212.0
2015-May-20 22:33N 55°31' E 015°07'1212.0
2015-May-20 21:33N 55°26' E 014°48'1211.6
2015-May-20 20:33N 55°19' E 014°32'1211.7
2015-May-20 19:33N 55°10' E 014°19'1611.1
2015-May-20 18:05N 55°11' E 013°51'1811.4
2015-May-20 16:33N 55°12' E 013°20'1212.4
2015-May-20 15:33N 55°14' E 012°58'1312.6
2015-May-20 14:33N 55°18' E 012°38'1312.5
2015-May-20 13:33N 55°30' E 012°42'8 7.7
2015-May-20 12:33N 55°38' E 012°42'1111.5
2015-May-20 11:34N 55°50' E 012°42'1312.7
2015-May-20 10:34N 56°02' E 012°38'9 9.4
2015-May-20 09:34N 56°09' E 012°26'1312.5
2015-May-20 08:33N 56°16' E 012°08'1313.1
2015-May-20 07:32N 56°28' E 011°59'1313.5
2015-May-20 06:33N 56°41' E 011°54'1413.9
2015-May-20 05:33N 56°54' E 011°46'1413.8
2015-May-20 04:33N 57°08' E 011°37'1413.9
2015-May-20 03:33N 57°21' E 011°29'1212.4
2015-May-20 02:33N 57°30' E 011°15'1413.9
2015-May-20 01:33N 57°37' E 010°52'10 2.9
2015-May-19 22:12N 57°42' E 010°36'0 0.0
2015-May-19 21:24N 57°42' E 010°36'0 0.0
2015-May-19 20:30N 57°42' E 010°36'0 0.0
2015-May-19 19:24N 57°42' E 010°36'8 9.1
2015-May-19 18:33N 57°35' E 010°40'  

Dump ship's entire track history